.
WxDataArchive / Data Records for 2015-01-29
2015-01-28 January 2015 2015-01-30

Data Records for Thursday, 29 January 2015

Time	Temp	Chill	HIndex	Humid	Dewpt	 Wind 	HiWind	WindDir	Rain 	Barom
-----	----	-----	------	-----	-----	------	------	-------	-----	-----
00:00	27.3	27.3	27.3	71	19.2	1	4	90	0.00	30.065 
00:05	27.5	27.5	27.5	71	19.4	0	3	112	0.00	30.065 
00:10	27.5	27.5	27.5	72	19.7	1	6	112	0.00	30.065 
00:15	27.5	27.5	27.5	72	19.7	1	4	112	0.00	30.035 
00:20	27.6	27.6	27.6	72	19.8	0	3	112	0.00	30.035 
00:25	27.6	27.6	27.6	72	19.8	0	2	112	0.00	30.035 
00:30	27.6	27.6	27.6	72	19.8	0	2	112	0.00	30.033 
00:35	27.8	27.8	27.8	72	20.0	0	2	112	0.00	30.033 
00:40	27.9	27.9	27.9	72	20.1	1	5	90	0.00	30.033 
00:45	28.1	28.1	28.1	71	19.9	1	3	112	0.00	30.021 
00:50	28.2	28.2	28.2	71	20.0	1	3	112	0.00	30.021 
00:55	28.5	28.5	28.5	70	20.0	1	3	112	0.00	30.021 
01:00	28.7	28.7	28.7	70	20.2	1	4	112	0.00	30.030 
01:05	29.0	29.0	29.0	69	20.1	1	5	112	0.00	30.030 
01:10	29.1	29.1	29.1	69	20.2	0	2	112	0.00	30.030 
01:15	29.3	29.3	29.3	68	20.1	1	6	112	0.00	30.019 
01:20	29.4	29.4	29.4	68	20.2	0	3	112	0.00	30.019 
01:25	29.4	29.4	29.4	68	20.2	1	5	112	0.00	30.019 
01:30	29.5	29.5	29.5	68	20.3	1	4	135	0.00	30.016 
01:35	29.5	29.5	29.5	68	20.3	1	3	90	0.00	30.016 
01:40	29.7	29.7	29.7	68	20.5	1	3	90	0.00	30.016 
01:45	29.7	29.7	29.7	68	20.5	1	3	135	0.00	30.002 
01:50	29.7	29.7	29.7	67	20.1	1	3	135	0.00	30.002 
01:55	29.7	29.7	29.7	68	20.5	1	4	112	0.00	30.002 
02:00	29.8	29.8	29.8	68	20.5	1	3	90	0.00	29.987 
02:05	29.8	29.8	29.8	67	20.2	1	4	90	0.00	29.987 
02:10	29.8	29.8	29.8	68	20.5	1	4	112	0.00	29.987 
02:15	29.8	29.8	29.8	68	20.5	1	4	135	0.00	29.969 
02:20	29.8	29.8	29.8	68	20.5	0	2	112	0.00	29.969 
02:25	29.8	29.8	29.8	68	20.5	1	3	112	0.00	29.969 
02:30	29.8	29.8	29.8	68	20.5	1	4	112	0.00	29.957 
02:35	29.8	29.8	29.8	68	20.5	1	4	135	0.00	29.957 
02:40	30.0	30.0	30.0	68	20.7	1	3	135	0.00	29.957 
02:45	30.0	30.0	30.0	68	20.7	1	3	112	0.00	29.951 
02:50	30.1	30.1	30.1	68	20.8	2	4	112	0.00	29.951 
02:55	30.1	30.1	30.1	68	20.8	2	6	112	0.00	29.951 
03:00	30.3	30.3	30.3	68	21.0	1	5	90	0.00	29.937 
03:05	30.3	30.3	30.3	68	21.0	1	3	112	0.00	29.937 
03:10	30.3	30.3	30.3	68	21.0	2	4	90	0.00	29.937 
03:15	30.4	30.4	30.4	68	21.1	1	4	112	0.00	29.928 
03:20	30.6	30.6	30.6	68	21.3	1	4	112	0.00	29.928 
03:25	30.6	30.6	30.6	68	21.3	2	6	112	0.00	29.928 
03:30	30.6	30.6	30.6	68	21.3	1	3	90	0.00	29.909 
03:35	30.7	30.7	30.7	68	21.4	1	4	112	0.00	29.909 
03:40	30.9	30.9	30.9	68	21.6	1	3	112	0.00	29.909 
03:45	31.0	31.0	31.0	67	21.3	1	5	112	0.00	29.900 
03:50	31.2	31.2	31.2	67	21.5	1	4	112	0.00	29.900 
03:55	31.2	31.2	31.2	67	21.5	1	3	135	0.00	29.900 
04:00	31.3	31.3	31.3	67	21.6	1	3	112	0.00	29.885 
04:05	31.5	31.5	31.5	67	21.8	1	3	112	0.00	29.885 
04:10	31.6	31.6	31.6	67	21.9	0	2	135	0.00	29.885 
04:15	31.8	31.8	31.8	68	22.5	1	3	135	0.00	29.873 
04:20	31.8	31.8	31.8	69	22.8	1	2	135	0.00	29.873 
04:25	31.9	31.9	31.9	69	22.9	1	2	135	0.00	29.873 
04:30	32.1	32.1	32.1	71	23.8	1	3	112	0.00	29.867 
04:35	32.1	32.1	32.1	72	24.1	0	2	112	0.00	29.867 
04:40	32.1	32.1	32.1	73	24.4	1	2	112	0.00	29.867 
04:45	32.1	32.1	32.1	73	24.4	1	3	112	0.00	29.851 
04:50	32.2	32.2	32.2	73	24.5	1	4	135	0.00	29.851 
04:55	32.2	32.2	32.2	73	24.5	1	2	90	0.00	29.851 
05:00	32.4	32.4	32.4	73	24.7	1	3	90	0.00	29.838 
05:05	32.5	32.5	32.5	72	24.5	1	3	112	0.00	29.838 
05:10	32.7	32.7	32.7	72	24.7	1	3	135	0.00	29.838 
05:15	32.8	32.8	32.8	72	24.8	1	4	112	0.00	29.824 
05:20	32.8	32.8	32.8	72	24.8	0	2	112	0.00	29.824 
05:25	32.9	32.9	32.9	71	24.5	1	3	112	0.00	29.824 
05:30	33.1	33.1	33.1	71	24.7	0	2	135	0.00	29.815 
05:35	33.1	33.1	33.1	71	24.7	0	2	135	0.00	29.815 
05:40	33.2	33.2	33.2	71	24.8	0	2	135	0.00	29.815 
05:45	33.2	33.2	33.2	71	24.8	0	3	135	0.00	29.808 
05:50	33.4	33.4	33.4	70	24.7	1	2	135	0.00	29.808 
05:55	33.7	33.7	33.7	70	25.0	0	2	135	0.00	29.808 
06:00	33.8	33.8	33.8	69	24.7	1	5	112	0.00	29.801 
06:05	34.3	34.3	34.3	68	24.9	1	4	112	0.00	29.801 
06:10	34.6	34.6	34.6	67	24.8	1	4	112	0.00	29.801 
06:15	34.7	34.7	34.7	67	24.9	0	2	112	0.00	29.792 
06:20	34.9	34.9	34.9	67	25.1	1	3	135	0.00	29.792 
06:25	34.9	34.9	34.9	67	25.1	0	2	135	0.00	29.792 
06:30	35.0	35.0	35.0	67	25.2	1	4	135	0.00	29.785 
06:35	35.2	35.2	35.2	67	25.4	1	4	90	0.00	29.785 
06:40	35.3	35.3	35.3	68	25.8	0	2	90	0.00	29.785 
06:45	35.3	35.3	35.3	68	25.8	1	6	90	0.00	29.776 
06:50	35.3	35.3	35.3	68	25.8	0	2	90	0.00	29.776 
06:55	35.3	35.3	35.3	69	26.2	1	3	90	0.00	29.776 
07:00	35.5	35.5	35.5	69	26.4	1	3	90	0.00	29.770 
07:05	35.5	35.5	35.5	69	26.4	0	3	90	0.00	29.770 
07:10	35.5	35.5	35.5	69	26.4	1	3	90	0.00	29.770 
07:15	35.3	35.3	35.3	70	26.5	0	2	90	0.00	29.765 
07:20	35.3	35.3	35.3	70	26.5	1	2	90	0.00	29.765 
07:25	35.2	35.2	35.2	70	26.4	1	3	90	0.00	29.765 
07:30	35.2	35.2	35.2	70	26.4	1	3	90	0.00	29.761 
07:35	35.3	35.3	35.3	70	26.5	0	3	90	0.00	29.761 
07:40	35.2	35.2	35.2	70	26.4	0	2	90	0.00	29.761 
07:45	35.2	35.2	35.2	71	26.8	0	2	90	0.00	29.760 
07:50	35.0	35.0	35.0	71	26.6	0	2	90	0.00	29.760 
07:55	35.0	35.0	35.0	71	26.6	0	1	90	0.00	29.760 
08:00	35.0	35.0	35.0	72	26.9	0	2	90	0.00	29.759 
08:05	35.0	35.0	35.0	72	26.9	0	1	90	0.00	29.759 
08:10	35.2	35.2	35.2	73	27.4	0	1	90	0.00	29.759 
08:15	35.3	35.3	35.3	73	27.5	0	2	90	0.00	29.758 
08:20	35.6	35.6	35.6	73	27.8	0	2	90	0.00	29.758 
08:25	35.9	35.9	35.9	73	28.1	1	4	90	0.00	29.758 
08:30	36.0	36.0	36.0	73	28.2	0	2	292	0.00	29.749 
08:35	36.2	36.2	36.2	73	28.4	0	1	292	0.00	29.749 
08:40	36.3	36.3	36.3	73	28.5	0	2	292	0.00	29.749 
08:45	36.5	36.5	36.5	73	28.7	0	2	292	0.00	29.745 
08:50	36.5	36.5	36.5	73	28.7	0	1	292	0.00	29.745 
08:55	36.5	36.5	36.5	74	29.0	0	1	292	0.00	29.745 
09:00	36.6	36.6	36.6	74	29.1	0	2	292	0.00	29.744 
09:05	36.8	36.8	36.8	74	29.3	0	1	292	0.00	29.744 
09:10	36.9	36.9	36.9	74	29.4	0	1	292	0.00	29.744 
09:15	37.0	37.0	37.0	74	29.5	0	2	292	0.00	29.741 
09:20	37.2	37.2	37.2	74	29.7	0	1	292	0.00	29.741 
09:25	37.5	37.5	37.5	74	30.0	0	1	292	0.00	29.741 
09:30	37.8	37.8	37.8	74	30.3	1	4	90	0.00	29.741 
09:35	38.2	38.2	38.2	73	30.3	0	2	90	0.00	29.741 
09:40	38.3	38.3	38.3	73	30.4	0	2	90	0.00	29.741 
09:45	38.6	38.6	38.6	73	30.7	0	2	0	0.00	29.740 
09:50	38.6	38.6	38.6	73	30.7	0	3	0	0.00	29.740 
09:55	38.8	38.8	38.8	73	30.9	0	3	270	0.00	29.740 
10:00	39.1	39.1	39.1	73	31.2	1	3	270	0.00	29.741 
10:05	39.2	39.2	39.2	72	30.9	1	3	270	0.00	29.741 
10:10	39.2	39.2	39.2	72	30.9	1	4	270	0.00	29.741 
10:15	39.2	39.2	39.2	72	30.9	0	2	270	0.00	29.745 
10:20	39.2	39.2	39.2	73	31.3	1	4	270	0.00	29.745 
10:25	39.2	39.2	39.2	73	31.3	1	3	270	0.00	29.745 
10:30	39.3	39.3	39.3	73	31.4	1	3	248	0.00	29.740 
10:35	39.3	39.3	39.3	73	31.4	1	3	248	0.00	29.740 
10:40	39.3	39.3	39.3	75	32.0	1	2	248	0.00	29.740 
10:45	39.2	39.2	39.2	76	32.3	0	2	248	0.00	29.739 
10:50	38.9	38.9	38.9	77	32.3	0	2	248	0.00	29.739 
10:55	38.8	38.8	38.8	79	32.9	0	2	248	0.01	29.739 
11:00	38.5	38.5	38.5	81	33.2	0	2	248	0.01	29.746 
11:05	38.3	38.3	38.3	82	33.3	0	2	248	0.00	29.746 
11:10	38.0	38.0	38.0	83	33.3	0	3	248	0.01	29.746 
11:15	38.0	38.0	38.0	84	33.6	0	2	248	0.00	29.740 
11:20	37.9	37.9	37.9	84	33.5	0	2	248	0.01	29.740 
11:25	37.9	37.9	37.9	85	33.8	0	1	248	0.00	29.740 
11:30	37.9	37.9	37.9	85	33.8	0	1	248	0.00	29.738 
11:35	38.0	38.0	38.0	86	34.2	0	1	248	0.01	29.738 
11:40	38.2	38.2	38.2	86	34.4	0	1	248	0.00	29.738 
11:45	38.2	38.2	38.2	85	34.1	0	1	248	0.00	29.739 
11:50	38.3	38.3	38.3	85	34.2	0	1	248	0.01	29.739 
11:55	38.3	38.3	38.3	85	34.2	0	2	248	0.00	29.739 
12:00	38.5	38.5	38.5	84	34.1	1	3	248	0.00	29.737 
12:05	38.6	38.6	38.6	84	34.2	1	3	248	0.01	29.737 
12:10	38.8	38.8	38.8	83	34.1	0	2	248	0.00	29.737 
12:15	38.9	38.9	38.9	82	33.9	1	2	248	0.00	29.744 
12:20	38.9	38.9	38.9	81	33.6	2	4	248	0.00	29.744 
12:25	38.9	38.9	38.9	80	33.3	2	4	248	0.01	29.744 
12:30	38.9	38.9	38.9	80	33.3	2	3	248	0.00	29.750 
12:35	38.8	38.8	38.8	79	32.9	2	4	248	0.00	29.750 
12:40	38.6	38.6	38.6	80	33.0	2	5	248	0.01	29.750 
12:45	38.5	38.5	38.5	80	32.9	2	3	248	0.00	29.751 
12:50	38.2	38.2	38.2	80	32.6	2	5	248	0.00	29.751 
12:55	38.0	38.0	38.0	80	32.4	2	5	270	0.01	29.751 
13:00	37.9	37.9	37.9	80	32.3	3	5	270	0.00	29.761 
13:05	37.6	37.6	37.6	80	32.0	2	5	270	0.00	29.761 
13:10	37.6	37.6	37.6	80	32.0	3	6	270	0.00	29.761 
13:15	37.5	37.5	37.5	80	31.9	2	4	270	0.01	29.766 
13:20	37.3	37.3	37.3	80	31.7	3	7	270	0.00	29.766 
13:25	37.0	37.0	37.0	79	31.1	3	7	315	0.00	29.766 
13:30	36.9	36.9	36.9	80	31.3	2	6	270	0.00	29.772 
13:35	36.6	36.6	36.6	80	31.0	3	7	292	0.00	29.772 
13:40	36.5	36.5	36.5	81	31.2	2	6	338	0.01	29.772 
13:45	36.5	36.5	36.5	81	31.2	1	4	292	0.00	29.777 
13:50	36.3	36.3	36.3	81	31.0	2	5	292	0.00	29.777 
13:55	36.2	36.2	36.2	81	30.9	2	5	315	0.00	29.777 
14:00	36.0	36.0	36.0	81	30.7	2	5	315	0.00	29.789 
14:05	36.0	36.0	36.0	81	30.7	2	5	315	0.00	29.789 
14:10	35.9	35.9	35.9	82	31.0	2	5	270	0.00	29.789 
14:15	35.9	35.9	35.9	82	31.0	3	11	315	0.00	29.798 
14:20	35.9	35.9	35.9	82	31.0	1	5	315	0.01	29.798 
14:25	35.8	35.8	35.8	83	31.2	1	3	315	0.00	29.798 
14:30	35.8	35.8	35.8	84	31.4	1	4	270	0.00	29.807 
14:35	35.6	35.6	35.6	84	31.3	2	5	270	0.00	29.807 
14:40	35.5	35.5	35.5	84	31.2	3	7	270	0.00	29.807 
14:45	35.5	35.5	35.5	84	31.2	2	6	315	0.00	29.821 
14:50	35.5	35.5	35.5	84	31.2	3	10	292	0.00	29.821 
14:55	35.5	35.5	35.5	84	31.2	2	6	292	0.00	29.821 
15:00	35.5	35.5	35.5	84	31.2	1	4	248	0.00	29.835 
15:05	35.5	35.5	35.5	84	31.2	2	5	248	0.00	29.835 
15:10	35.3	35.3	35.3	83	30.7	2	6	315	0.00	29.835 
15:15	35.3	35.3	35.3	84	31.0	2	5	315	0.00	29.848 
15:20	35.2	35.2	35.2	84	30.9	3	10	315	0.00	29.848 
15:25	35.0	35.0	35.0	84	30.7	2	4	292	0.01	29.848 
15:30	34.9	34.9	34.9	85	30.9	2	5	270	0.00	29.862 
15:35	34.7	34.7	34.7	85	30.7	2	6	270	0.00	29.862 
15:40	34.4	34.4	34.4	86	30.7	2	7	270	0.00	29.862 
15:45	34.4	34.4	34.4	86	30.7	3	7	270	0.00	29.875 
15:50	34.3	34.3	34.3	87	30.8	2	10	292	0.00	29.875 
15:55	34.1	34.1	34.1	87	30.6	2	5	315	0.00	29.875 
16:00	34.0	34.0	34.0	87	30.5	2	6	315	0.00	29.887 
16:05	34.0	34.0	34.0	88	30.8	2	5	292	0.00	29.887 
16:10	33.8	33.8	33.8	88	30.6	1	3	315	0.00	29.887 
16:15	33.8	33.8	33.8	88	30.6	1	3	315	0.00	29.896 
16:20	33.7	33.7	33.7	88	30.5	1	4	270	0.00	29.896 
16:25	33.5	33.5	33.5	89	30.6	2	7	315	0.00	29.896 
16:30	33.4	33.4	33.4	89	30.5	2	6	292	0.00	29.913 
16:35	33.4	33.4	33.4	88	30.2	3	7	270	0.00	29.913 
16:40	33.4	33.4	33.4	88	30.2	3	7	338	0.00	29.913 
16:45	33.4	33.4	33.4	87	30.0	2	6	292	0.00	29.928 
16:50	33.4	33.4	33.4	86	29.7	3	10	292	0.00	29.928 
16:55	33.4	33.4	33.4	86	29.7	2	4	270	0.00	29.928 
17:00	33.4	33.4	33.4	85	29.4	3	6	270	0.00	29.942 
17:05	33.5	33.5	33.5	84	29.2	3	9	292	0.00	29.942 
17:10	33.5	33.5	33.5	83	28.9	3	8	315	0.00	29.942 
17:15	33.7	30.0	33.7	82	28.8	4	12	315	0.00	29.955 
17:20	33.7	33.7	33.7	81	28.5	3	6	292	0.00	29.955 
17:25	33.8	33.8	33.8	80	28.3	2	6	315	0.00	29.955 
17:30	33.8	33.8	33.8	81	28.6	2	6	315	0.00	29.968 
17:35	33.7	33.7	33.7	81	28.5	3	6	292	0.00	29.968 
17:40	33.5	29.8	33.5	81	28.3	4	7	315	0.00	29.968 
17:45	33.5	33.5	33.5	81	28.3	2	6	292	0.00	29.975 
17:50	33.4	33.4	33.4	81	28.2	3	7	315	0.00	29.975 
17:55	33.4	29.7	33.4	81	28.2	4	9	315	0.00	29.975 
18:00	33.4	33.4	33.4	81	28.2	3	11	315	0.00	29.990 
18:05	33.2	29.5	33.2	81	28.0	4	11	315	0.00	29.990 
18:10	33.2	29.5	33.2	81	28.0	4	11	315	0.00	29.990 
18:15	33.2	33.2	33.2	81	28.0	3	10	338	0.00	30.005 
18:20	33.1	33.1	33.1	82	28.2	3	6	292	0.00	30.005 
18:25	33.1	33.1	33.1	82	28.2	3	6	270	0.00	30.005 
18:30	33.1	29.3	33.1	82	28.2	4	13	292	0.00	30.019 
18:35	33.1	33.1	33.1	81	27.9	3	11	315	0.00	30.019 
18:40	33.1	33.1	33.1	81	27.9	3	6	270	0.00	30.019 
18:45	33.1	33.1	33.1	81	27.9	2	7	292	0.00	30.030 
18:50	33.1	33.1	33.1	81	27.9	3	7	315	0.00	30.030 
18:55	33.1	33.1	33.1	81	27.9	3	10	0	0.00	30.030 
19:00	33.1	29.3	33.1	79	27.3	4	11	338	0.00	30.042 
19:05	33.2	33.2	33.2	79	27.4	3	7	0	0.00	30.042 
19:10	33.2	29.5	33.2	78	27.1	4	8	292	0.00	30.042 
19:15	33.4	28.7	33.4	77	27.0	5	10	270	0.00	30.051 
19:20	33.5	29.8	33.5	76	26.8	4	11	315	0.00	30.051 
19:25	33.5	33.5	33.5	76	26.8	3	9	315	0.00	30.051 
19:30	33.5	33.5	33.5	76	26.8	2	6	292	0.00	30.056 
19:35	33.5	33.5	33.5	75	26.4	2	11	315	0.00	30.056 
19:40	33.5	33.5	33.5	75	26.4	3	10	315	0.00	30.056 
19:45	33.4	33.4	33.4	75	26.3	3	11	292	0.00	30.065 
19:50	33.4	29.7	33.4	75	26.3	4	11	292	0.00	30.065 
19:55	33.4	33.4	33.4	75	26.3	3	10	270	0.00	30.065 
20:00	33.4	33.4	33.4	76	26.7	2	6	315	0.00	30.075 
20:05	33.4	33.4	33.4	76	26.7	2	7	292	0.00	30.075 
20:10	33.2	33.2	33.2	76	26.5	2	9	270	0.00	30.075 
20:15	33.2	33.2	33.2	76	26.5	2	9	338	0.00	30.081 
20:20	33.2	33.2	33.2	76	26.5	2	5	338	0.00	30.081 
20:25	33.2	33.2	33.2	77	26.8	2	6	338	0.00	30.081 
20:30	33.2	33.2	33.2	77	26.8	3	7	292	0.00	30.091 
20:35	33.2	33.2	33.2	78	27.1	3	13	338	0.00	30.091 
20:40	33.1	33.1	33.1	78	27.0	2	6	292	0.00	30.091 
20:45	33.1	33.1	33.1	79	27.3	2	7	292	0.00	30.096 
20:50	33.1	33.1	33.1	80	27.6	2	5	292	0.00	30.096 
20:55	32.9	32.9	32.9	80	27.4	3	7	292	0.00	30.096 
21:00	32.9	29.1	32.9	78	26.8	4	12	338	0.00	30.097 
21:05	33.1	33.1	33.1	78	27.0	2	7	315	0.00	30.097 
21:10	32.9	29.1	32.9	78	26.8	4	10	292	0.00	30.097 
21:15	32.9	32.9	32.9	79	27.1	3	7	315	0.00	30.106 
21:20	32.8	32.8	32.8	79	27.0	3	7	292	0.00	30.106 
21:25	32.7	32.7	32.7	80	27.2	3	6	292	0.00	30.106 
21:30	32.7	32.7	32.7	80	27.2	3	7	270	0.00	30.110 
21:35	32.7	32.7	32.7	81	27.5	2	6	338	0.00	30.110 
21:40	32.5	32.5	32.5	81	27.3	3	6	338	0.00	30.110 
21:45	32.5	32.5	32.5	81	27.3	1	4	292	0.00	30.112 
21:50	32.4	32.4	32.4	82	27.5	1	3	292	0.00	30.112 
21:55	32.4	32.4	32.4	82	27.5	0	2	292	0.00	30.112 
22:00	32.4	32.4	32.4	83	27.8	0	2	292	0.00	30.115 
22:05	32.2	32.2	32.2	84	27.9	0	1	292	0.00	30.115 
22:10	32.2	32.2	32.2	84	27.9	0	3	292	0.00	30.115 
22:15	32.1	32.1	32.1	84	27.8	0	4	292	0.00	30.118 
22:20	32.1	32.1	32.1	85	28.1	0	3	292	0.00	30.118 
22:25	31.9	31.9	31.9	85	27.9	1	2	292	0.00	30.118 
22:30	31.9	31.9	31.9	85	27.9	1	2	292	0.00	30.124 
22:35	31.9	31.9	31.9	85	27.9	1	3	292	0.00	30.124 
22:40	31.9	31.9	31.9	85	27.9	1	4	292	0.00	30.124 
22:45	31.9	31.9	31.9	86	28.2	1	3	292	0.00	30.128 
22:50	31.9	31.9	31.9	86	28.2	0	2	292	0.00	30.128 
22:55	31.8	31.8	31.8	86	28.1	1	3	292	0.00	30.128 
23:00	31.8	31.8	31.8	87	28.4	0	1	292	0.00	30.129 
23:05	31.8	31.8	31.8	87	28.4	0	2	292	0.00	30.129 
23:10	31.8	31.8	31.8	87	28.4	0	1	292	0.00	30.129 
23:15	31.8	31.8	31.8	87	28.4	0	2	292	0.00	30.129 
23:20	31.8	31.8	31.8	87	28.4	0	2	292	0.00	30.129 
23:25	31.8	31.8	31.8	87	28.4	0	2	292	0.00	30.129 
23:30	31.8	31.8	31.8	87	28.4	0	1	292	0.00	30.133 
23:35	31.8	31.8	31.8	87	28.4	0	2	292	0.00	30.133 
23:40	31.9	31.9	31.9	87	28.5	0	1	292	0.00	30.133 
23:45	31.9	31.9	31.9	86	28.2	0	2	292	0.00	30.134 
23:50	31.9	31.9	31.9	86	28.2	1	3	292	0.00	30.134 
23:55	32.1	32.1	32.1	85	28.1	1	3	292	0.00	30.134 

CoCoRaHS
IN-AL-39
A2 Web Hosting
Creative Commons License
GoDaddy
search engine by freefind advanced

loaded 2018-11-15 05:38:10 • last modified 2010-11-18 10:43:29
Privacy PolicyDisclaimer
• wx.awcolley.com is powered by PmWiki v.2002016 •
• all content (unless otherwise noted) © 2018 A W Colley